TimeEDT,TemperatureF,Dew PointF,Humidity,Sea Level PressureIn,VisibilityMPH,Wind Direction,Wind SpeedMPH,Gust SpeedMPH,PrecipitationIn,Events,Conditions,WindDirDegrees,DateUTC
12:53 AM,81.0,71.1,72,30.03,10.0,East,13.8,-,N/A,,Scattered Clouds,80,2013-10-02 04:53:00
1:53 AM,81.0,72.0,74,30.03,10.0,East,11.5,-,N/A,,Scattered Clouds,80,2013-10-02 05:53:00
2:53 AM,81.0,72.0,74,30.01,10.0,ENE,9.2,-,N/A,,Partly Cloudy,70,2013-10-02 06:53:00
3:53 AM,81.0,72.0,74,29.99,10.0,ENE,11.5,-,N/A,,Scattered Clouds,70,2013-10-02 07:53:00
4:53 AM,81.0,73.0,77,29.98,10.0,ENE,8.1,-,N/A,,Mostly Cloudy,60,2013-10-02 08:53:00
5:53 AM,81.0,73.0,77,29.99,10.0,East,9.2,-,0.00,,Mostly Cloudy,80,2013-10-02 09:53:00
6:53 AM,81.0,73.0,77,29.99,10.0,NE,10.4,-,N/A,,Mostly Cloudy,50,2013-10-02 10:53:00
7:53 AM,80.1,73.9,81,30.00,10.0,ENE,9.2,-,0.00,,Mostly Cloudy,70,2013-10-02 11:53:00
8:53 AM,82.0,73.0,74,30.02,10.0,ENE,12.7,-,N/A,,Scattered Clouds,60,2013-10-02 12:53:00
9:53 AM,82.9,72.0,69,30.04,10.0,ENE,12.7,20.7,N/A,,Scattered Clouds,60,2013-10-02 13:53:00
9:55 AM,82.4,71.6,70,30.03,10.0,ENE,13.8,20.7,N/A,,Mostly Cloudy,70,2013-10-02 13:55:00
10:53 AM,82.0,73.0,74,30.05,10.0,ESE,17.3,-,N/A,,Mostly Cloudy,110,2013-10-02 14:53:00
11:00 AM,78.8,73.4,83,30.04,10.0,SE,15.0,-,N/A,,Mostly Cloudy,130,2013-10-02 15:00:00
11:53 AM,79.0,73.9,84,30.04,10.0,ENE,5.8,-,0.00,Rain,Light Rain,70,2013-10-02 15:53:00
12:53 PM,82.0,71.1,69,30.04,10.0,ENE,12.7,-,0.00,,Mostly Cloudy,70,2013-10-02 16:53:00
1:53 PM,82.9,71.1,67,30.02,10.0,ENE,12.7,20.7,N/A,,Mostly Cloudy,60,2013-10-02 17:53:00
2:53 PM,82.9,71.1,67,30.01,10.0,East,15.0,-,N/A,,Mostly Cloudy,80,2013-10-02 18:53:00
3:53 PM,82.0,75.0,79,29.99,10.0,East,9.2,-,0.00,,Mostly Cloudy,90,2013-10-02 19:53:00
4:53 PM,82.9,72.0,69,29.99,10.0,East,12.7,-,N/A,,Mostly Cloudy,80,2013-10-02 20:53:00
5:53 PM,82.0,72.0,71,29.99,10.0,ENE,12.7,-,N/A,,Scattered Clouds,70,2013-10-02 21:53:00
6:53 PM,82.0,72.0,71,30.00,10.0,ENE,9.2,-,N/A,,Overcast,70,2013-10-02 22:53:00
7:53 PM,81.0,72.0,74,30.01,10.0,NE,8.1,-,N/A,,Scattered Clouds,50,2013-10-02 23:53:00
8:53 PM,81.0,72.0,74,30.02,10.0,NE,8.1,-,N/A,,Scattered Clouds,50,2013-10-03 00:53:00
9:53 PM,81.0,72.0,74,30.04,10.0,ENE,6.9,-,N/A,,Scattered Clouds,60,2013-10-03 01:53:00
10:53 PM,81.0,73.0,77,30.05,10.0,ENE,6.9,-,N/A,,Scattered Clouds,60,2013-10-03 02:53:00
11:53 PM,81.0,73.0,77,30.05,10.0,ENE,8.1,-,N/A,,Mostly Cloudy,70,2013-10-03 03:53:00